Time;durP1;ratioP1;P1;durP2;ratioP2;P2;SDS_P1;SDS_P2;PMS_P1;PMS_P2;Temp;Humidity;BMP_temperature;BMP_pressure;BME280_temperature;BME280_humidity;BME280_pressure;Samples;Min_cycle;Max_cycle;Signal;HPM_P1;HPM_P2
2021/07/12 00:01:31;;;;;;;12.32;11.10;;;16.80;99.90;;;;;;4969425;28;20130;-83
2021/07/12 00:03:57;;;;;;;13.57;12.18;;;16.80;99.90;;;;;;4953115;28;20495;-83
2021/07/12 00:06:22;;;;;;;14.00;12.55;;;16.80;99.90;;;;;;4953166;28;20030;-83
2021/07/12 00:08:49;;;;;;;14.73;13.25;;;16.80;99.90;;;;;;4985343;28;20050;-83
2021/07/12 00:11:15;;;;;;;13.43;11.98;;;16.80;99.90;;;;;;4969256;28;20419;-83
2021/07/12 00:13:40;;;;;;;14.48;13.07;;;16.80;99.90;;;;;;4968975;28;20046;-83
2021/07/12 00:16:06;;;;;;;13.90;12.50;;;16.80;99.90;;;;;;4985137;28;20046;-83
2021/07/12 00:18:32;;;;;;;15.20;13.35;;;16.90;99.90;;;;;;4952948;28;20054;-83
2021/07/12 00:20:58;;;;;;;14.25;12.75;;;16.90;99.90;;;;;;4968843;28;20126;-83
2021/07/12 00:23:23;;;;;;;13.40;12.05;;;17.00;99.90;;;;;;4952879;28;20102;-83
2021/07/12 00:25:49;;;;;;;15.40;13.80;;;17.00;99.90;;;;;;4978090;28;20104;-83
2021/07/12 00:28:14;;;;;;;15.15;13.60;;;17.00;99.90;;;;;;5051716;28;20028;-84
2021/07/12 00:30:40;;;;;;;13.85;12.40;;;17.00;99.90;;;;;;5068281;28;20024;-84
2021/07/12 00:33:06;;;;;;;14.82;13.10;;;17.00;99.90;;;;;;5051729;28;20052;-83
2021/07/12 00:35:32;;;;;;;13.52;12.13;;;17.00;99.90;;;;;;5067970;28;20032;-84
2021/07/12 00:37:58;;;;;;;15.13;13.32;;;17.00;99.90;;;;;;5051586;28;20036;-83
2021/07/12 00:40:26;;;;;;;14.13;12.63;;;17.00;99.90;;;;;;5051257;28;20049;-83
2021/07/12 00:42:52;;;;;;;14.88;13.38;;;17.00;99.90;;;;;;5051301;28;20029;-83
2021/07/12 00:45:21;;;;;;;13.77;12.13;;;17.00;99.90;;;;;;5051386;28;20030;-84
2021/07/12 00:47:51;;;;;;;14.50;13.00;;;17.00;99.90;;;;;;5051093;28;20028;-83
2021/07/12 00:50:19;;;;;;;15.35;13.75;;;17.00;99.90;;;;;;5051346;28;20037;-84
2021/07/12 00:52:46;;;;;;;14.30;12.85;;;17.10;99.90;;;;;;5051419;28;20031;-83
2021/07/12 00:55:19;;;;;;;16.50;14.43;;;17.00;99.90;;;;;;5067877;28;20047;-83
2021/07/12 00:57:47;;;;;;;14.98;13.40;;;17.00;99.90;;;;;;5051570;28;20031;-83
2021/07/12 01:00:14;;;;;;;14.27;12.88;;;17.00;99.90;;;;;;5051174;28;20040;-83
2021/07/12 01:02:40;;;;;;;15.93;14.32;;;17.10;99.90;;;;;;5071901;28;20028;-83
2021/07/12 01:05:13;;;;;;;13.80;12.40;;;17.10;99.90;;;;;;5071831;28;20031;-83
2021/07/12 01:07:40;;;;;;;;;;;17.10;99.90;;;;;;5055596;28;20025;-83
2021/07/12 01:10:08;;;;;;;13.25;11.63;;;17.20;99.90;;;;;;5055619;28;19915;-83
2021/07/12 01:12:42;;;;;;;15.15;13.55;;;17.20;99.90;;;;;;5055008;28;20032;-83
2021/07/12 01:15:16;;;;;;;14.98;13.40;;;17.30;99.90;;;;;;5089539;28;20075;-84
2021/07/12 01:18:20;;;;;;;16.42;14.27;;;17.20;99.90;;;;;;5056485;28;20059;-84
2021/07/12 01:21:17;;;;;;;16.90;14.40;;;17.30;99.90;;;;;;5055477;28;20039;-84
2021/07/12 01:24:12;;;;;;;16.92;15.07;;;17.20;99.90;;;;;;5071482;28;20035;-83
2021/07/12 01:27:06;;;;;;;17.67;14.95;;;17.30;99.90;;;;;;5071580;28;20047;-84
2021/07/12 01:30:12;;;;;;;15.45;13.75;;;17.20;99.90;;;;;;5055326;28;20493;-83
2021/07/12 01:33:15;;;;;;;16.02;14.15;;;17.20;99.90;;;;;;5071807;28;20083;-83
2021/07/12 01:35:48;;;;;;;16.45;13.95;;;17.10;99.90;;;;;;5001102;28;20037;-82
2021/07/12 01:38:33;;;;;;;17.05;15.13;;;17.10;99.90;;;;;;5054741;28;20032;-84
2021/07/12 01:41:19;;;;;;;17.20;13.82;;;17.10;99.90;;;;;;5071049;28;20140;-83
2021/07/12 01:44:14;;;;;;;16.02;14.30;;;17.10;99.90;;;;;;5054657;28;20106;-83
2021/07/12 01:47:05;;;;;;;17.90;14.02;;;17.00;99.90;;;;;;5054715;28;20445;-84
2021/07/12 01:49:49;;;;;;;16.05;14.35;;;17.00;99.90;;;;;;4971704;28;20031;-83
2021/07/12 01:52:19;;;;;;;17.45;14.35;;;16.90;99.90;;;;;;4955441;28;20043;-84
2021/07/12 01:54:59;;;;;;;17.15;15.35;;;16.80;99.90;;;;;;4971727;28;20035;-83
2021/07/12 01:57:49;;;;;;;17.75;15.82;;;16.80;99.90;;;;;;4955453;28;20118;-83
2021/07/12 02:00:18;;;;;;;19.38;15.85;;;16.70;99.90;;;;;;4971094;28;20050;-83
2021/07/12 02:02:58;;;;;;;18.60;15.98;;;16.70;99.90;;;;;;4971502;28;20134;-83
2021/07/12 02:05:36;;;;;;;17.10;15.30;;;16.70;99.90;;;;;;4956370;28;20035;-84
2021/07/12 02:08:13;;;;;;;19.30;16.02;;;16.70;99.90;;;;;;4955565;28;20034;-84
2021/07/12 02:10:44;;;;;;;19.35;17.25;;;16.60;99.90;;;;;;4955948;28;20443;-84
2021/07/12 02:13:12;;;;;;;;;;;16.50;99.90;;;;;;4955521;28;20027;-83
2021/07/12 02:15:50;;;;;;;19.10;15.07;;;16.40;99.90;;;;;;4956477;28;19918;-83
2021/07/12 02:18:37;;;;;;;15.48;13.52;;;16.40;99.90;;;;;;4958081;28;20042;-83
2021/07/12 02:21:32;;;;;;;17.17;15.23;;;16.50;99.90;;;;;;4984714;28;20148;-84
2021/07/12 02:24:02;;;;;;;19.20;16.02;;;16.40;99.90;;;;;;4970923;28;20031;-84
2021/07/12 02:26:30;;;;;;;19.55;16.55;;;16.40;99.90;;;;;;5017286;28;20032;-83
2021/07/12 02:29:01;;;;;;;19.95;16.73;;;16.30;99.90;;;;;;5054058;28;20025;-83
2021/07/12 02:31:30;;;;;;;19.33;16.98;;;16.30;99.90;;;;;;5053937;28;20040;-84
2021/07/12 02:33:58;;;;;;;19.15;17.15;;;16.30;99.90;;;;;;5053603;28;20138;-83
2021/07/12 02:36:25;;;;;;;19.10;16.55;;;16.30;99.90;;;;;;5053536;28;20078;-83
2021/07/12 02:38:55;;;;;;;18.70;16.70;;;16.30;99.90;;;;;;5053409;28;20028;-84
2021/07/12 02:41:23;;;;;;;;;;;16.20;99.90;;;;;;5054022;28;20053;-83
2021/07/12 02:43:51;;;;;;;18.27;15.18;;;16.20;99.90;;;;;;5053523;28;19940;-83
2021/07/12 02:46:23;;;;;;;18.08;14.80;;;16.20;99.90;;;;;;5069839;28;20039;-83
2021/07/12 02:48:52;;;;;;;19.25;16.83;;;16.10;99.90;;;;;;5053501;28;20103;-84
2021/07/12 02:51:24;;;;;;;19.47;16.47;;;16.10;99.90;;;;;;5053374;28;20032;-83
2021/07/12 02:53:57;;;;;;;20.05;17.27;;;16.00;99.90;;;;;;5069590;28;20266;-83
2021/07/12 02:56:22;;;;;;;17.55;15.75;;;16.00;99.90;;;;;;5069646;28;20059;-83
2021/07/12 02:58:49;;;;;;;17.42;15.13;;;15.90;99.90;;;;;;5069787;28;20032;-83
2021/07/12 03:01:15;;;;;;;19.17;16.20;;;15.90;99.90;;;;;;5053355;28;20131;-83
2021/07/12 03:03:41;;;;;;;19.77;17.67;;;15.90;99.90;;;;;;5052882;28;20032;-83
2021/07/12 03:06:13;;;;;;;19.38;16.77;;;15.90;99.90;;;;;;5053056;28;20033;-83
2021/07/12 03:09:05;;;;;;;21.58;17.30;;;15.90;99.90;;;;;;5069522;28;20476;-82
2021/07/12 03:11:40;;;;;;;19.23;15.77;;;15.90;99.90;;;;;;5040996;28;20059;-83
2021/07/12 03:14:19;;;;;;;18.38;16.33;;;15.90;99.90;;;;;;5069328;28;20066;-83
2021/07/12 03:16:48;;;;;;;17.33;15.50;;;15.90;99.90;;;;;;5069128;28;20396;-84
2021/07/12 03:19:23;;;;;;;19.30;16.98;;;16.00;99.90;;;;;;5052966;28;20036;-83
2021/07/12 03:21:51;;;;;;;19.77;16.90;;;15.90;99.90;;;;;;5087207;28;20039;-83
2021/07/12 03:24:19;;;;;;;17.30;15.32;;;16.00;99.90;;;;;;5051538;28;20024;-83
2021/07/12 03:26:47;;;;;;;18.98;16.85;;;16.00;99.90;;;;;;5052533;28;20032;-83
2021/07/12 03:29:13;;;;;;;20.27;16.90;;;16.00;99.90;;;;;;5052591;28;20028;-83
2021/07/12 03:31:40;;;;;;;21.95;17.55;;;15.90;99.90;;;;;;5069249;28;20111;-83
2021/07/12 03:34:08;;;;;;;19.90;16.30;;;15.90;99.90;;;;;;5052383;28;20029;-84
2021/07/12 03:36:35;;;;;;;20.90;17.73;;;15.90;99.90;;;;;;5052466;28;20031;-83
2021/07/12 03:39:03;;;;;;;22.40;17.02;;;15.90;99.90;;;;;;5068931;28;20028;-83
2021/07/12 03:41:35;;;;;;;19.58;16.85;;;15.80;99.90;;;;;;5052685;28;20048;-84
2021/07/12 03:44:02;;;;;;;20.75;17.63;;;15.90;99.90;;;;;;5052087;28;20037;-84
2021/07/12 03:46:28;;;;;;;20.67;17.58;;;15.80;99.90;;;;;;5048675;28;20024;-83
2021/07/12 03:48:56;;;;;;;19.88;17.65;;;15.80;99.90;;;;;;5029512;28;20037;-84
2021/07/12 03:51:25;;;;;;;21.45;16.67;;;15.80;99.90;;;;;;5032230;28;20531;-83
2021/07/12 03:53:54;;;;;;;19.55;17.45;;;15.80;99.90;;;;;;5032195;28;20029;-83
2021/07/12 03:56:20;;;;;;;21.02;17.48;;;15.80;99.90;;;;;;5047886;28;20037;-84
2021/07/12 03:58:48;;;;;;;22.40;17.00;;;15.80;99.90;;;;;;5031252;28;20029;-84
2021/07/12 04:01:21;;;;;;;20.65;16.90;;;15.70;99.90;;;;;;5031765;28;20044;-84
2021/07/12 04:03:48;;;;;;;18.45;16.08;;;15.70;99.90;;;;;;5031612;28;20029;-83
2021/07/12 04:06:14;;;;;;;20.73;17.38;;;15.80;99.90;;;;;;5031546;28;20090;-84
2021/07/12 04:08:40;;;;;;;19.80;17.40;;;15.90;99.90;;;;;;5064488;28;20115;-84
2021/07/12 04:11:06;;;;;;;18.17;16.23;;;15.90;99.90;;;;;;5064548;28;20076;-83
2021/07/12 04:13:32;;;;;;;19.98;16.92;;;15.90;99.90;;;;;;5064272;28;20469;-83
2021/07/12 04:15:58;;;;;;;18.00;15.88;;;15.90;99.90;;;;;;5057839;28;20078;-83
2021/07/12 04:18:24;;;;;;;20.48;17.48;;;15.90;99.90;;;;;;5031068;28;20105;-83
2021/07/12 04:20:50;;;;;;;19.58;16.20;;;16.00;99.90;;;;;;5064326;28;20044;-83
2021/07/12 04:23:16;;;;;;;18.42;16.42;;;16.00;99.90;;;;;;5031293;28;20025;-83
2021/07/12 04:25:42;;;;;;;20.45;15.98;;;16.00;99.90;;;;;;5047680;28;20052;-83
2021/07/12 04:28:08;;;;;;;17.58;15.18;;;16.00;99.90;;;;;;5047879;28;20033;-83
2021/07/12 04:30:33;;;;;;;20.95;17.05;;;16.10;99.90;;;;;;5064313;28;20025;-83
2021/07/12 04:32:59;;;;;;;18.90;16.35;;;16.20;99.90;;;;;;5031070;28;20020;-83
2021/07/12 04:35:25;;;;;;;18.77;16.20;;;16.20;99.90;;;;;;5030833;28;20166;-83
2021/07/12 04:37:51;;;;;;;22.58;18.00;;;16.30;99.90;;;;;;5047369;28;20060;-83
2021/07/12 04:40:17;;;;;;;19.77;17.02;;;16.30;99.90;;;;;;5063794;28;20108;-84
2021/07/12 04:42:43;;;;;;;19.83;17.73;;;16.40;99.90;;;;;;5063893;28;20032;-84
2021/07/12 04:45:10;;;;;;;18.50;16.50;;;16.40;99.90;;;;;;5030793;28;20040;-84
2021/07/12 04:47:38;;;;;;;19.55;17.45;;;16.50;99.90;;;;;;5030886;28;20029;-83
2021/07/12 04:50:06;;;;;;;19.48;16.63;;;16.70;99.90;;;;;;5064066;28;20035;-83
2021/07/12 04:52:32;;;;;;;21.10;18.23;;;16.80;99.90;;;;;;5064177;28;20037;-84
2021/07/12 04:54:58;;;;;;;20.58;18.38;;;16.80;99.90;;;;;;5063834;28;20032;-84
2021/07/12 04:57:23;;;;;;;21.75;18.33;;;16.90;99.90;;;;;;5047085;28;20029;-82
2021/07/12 04:59:51;;;;;;;21.20;17.65;;;17.00;99.90;;;;;;5063710;28;20044;-84
2021/07/12 05:02:17;;;;;;;21.08;17.75;;;17.10;99.90;;;;;;5063928;28;20082;-84
2021/07/12 05:04:42;;;;;;;20.50;17.55;;;17.20;99.90;;;;;;5063800;28;20037;-83
2021/07/12 05:07:10;;;;;;;21.27;18.13;;;17.20;99.90;;;;;;5064024;28;20021;-83
2021/07/12 05:09:36;;;;;;;21.15;18.85;;;17.30;99.90;;;;;;5063825;28;20078;-84
2021/07/12 05:12:02;;;;;;;23.50;19.55;;;17.40;99.90;;;;;;5063687;28;20170;-84
2021/07/12 05:14:27;;;;;;;23.10;20.10;;;17.40;99.90;;;;;;5065920;28;20033;-84
2021/07/12 05:16:53;;;;;;;20.25;18.00;;;17.50;99.90;;;;;;5050527;28;20021;-85
2021/07/12 05:19:21;;;;;;;19.38;17.42;;;17.60;99.90;;;;;;5064671;28;20459;-83
2021/07/12 05:21:47;;;;;;;18.95;16.92;;;17.60;99.90;;;;;;5067446;28;20037;-84
2021/07/12 05:24:13;;;;;;;20.65;18.48;;;17.70;99.90;;;;;;5050364;28;20048;-84
2021/07/12 05:26:39;;;;;;;21.10;18.80;;;17.80;99.90;;;;;;5050344;28;20044;-84
2021/07/12 05:29:04;;;;;;;21.27;18.98;;;17.90;99.90;;;;;;5067011;28;20092;-84
2021/07/12 05:31:30;;;;;;;22.70;20.23;;;17.90;99.90;;;;;;5050452;28;20056;-84
2021/07/12 05:33:56;;;;;;;23.30;20.30;;;18.00;99.90;;;;;;5049986;28;20033;-84
2021/07/12 05:36:21;;;;;;;19.40;17.42;;;18.10;99.90;;;;;;5050353;28;20033;-84
2021/07/12 05:38:47;;;;;;;21.52;18.80;;;18.10;99.90;;;;;;5084810;28;20035;-84
2021/07/12 05:41:12;;;;;;;21.58;19.25;;;18.20;99.90;;;;;;5066064;28;20056;-84
2021/07/12 05:43:38;;;;;;;20.38;18.25;;;18.10;99.90;;;;;;5044847;28;20024;-84
2021/07/12 05:46:05;;;;;;;20.30;18.17;;;18.30;99.90;;;;;;5044336;28;20020;-84
2021/07/12 05:48:32;;;;;;;20.27;18.08;;;18.40;99.90;;;;;;5052482;28;20044;-85
2021/07/12 05:50:57;;;;;;;20.10;17.65;;;18.40;99.90;;;;;;5053482;28;20039;-84
2021/07/12 05:53:23;;;;;;;19.15;17.08;;;18.50;99.90;;;;;;5069772;28;20028;-85
2021/07/12 05:55:49;;;;;;;20.80;18.67;;;18.70;99.90;;;;;;5053029;28;20086;-84
2021/07/12 05:58:14;;;;;;;19.38;16.65;;;18.80;99.90;;;;;;5069907;28;20035;-85
2021/07/12 06:00:40;;;;;;;18.05;16.23;;;18.90;99.90;;;;;;5069866;28;20041;-85
2021/07/12 06:03:06;;;;;;;19.48;17.42;;;18.90;99.90;;;;;;5053222;28;20400;-84
2021/07/12 06:05:32;;;;;;;18.25;16.02;;;19.10;99.90;;;;;;5069709;28;20076;-85
2021/07/12 06:07:58;;;;;;;18.83;16.90;;;19.20;99.90;;;;;;5069645;28;20033;-85
2021/07/12 06:10:24;;;;;;;20.25;17.88;;;19.30;99.90;;;;;;5052967;28;20083;-85
2021/07/12 06:12:49;;;;;;;17.23;15.27;;;19.50;99.90;;;;;;5087386;28;20415;-84
2021/07/12 06:15:15;;;;;;;17.40;15.35;;;19.70;99.90;;;;;;5015897;28;20124;-85
2021/07/12 06:17:41;;;;;;;18.23;16.42;;;19.90;99.90;;;;;;5032544;28;20028;-85
2021/07/12 06:20:08;;;;;;;15.43;13.85;;;19.90;99.90;;;;;;5049196;28;20492;-84
2021/07/12 06:22:35;;;;;;;15.82;14.18;;;19.90;99.90;;;;;;5032524;28;20021;-84
2021/07/12 06:25:01;;;;;;;15.13;13.52;;;20.00;99.90;;;;;;5049540;28;20036;-84
2021/07/12 06:27:27;;;;;;;14.52;13.15;;;20.00;99.90;;;;;;5033201;28;20029;-85
2021/07/12 06:29:53;;;;;;;15.63;13.93;;;20.10;99.90;;;;;;5033284;28;20033;-84
2021/07/12 06:32:19;;;;;;;15.23;13.75;;;20.20;99.90;;;;;;5049697;28;20104;-85
2021/07/12 06:34:45;;;;;;;15.20;13.70;;;20.20;99.90;;;;;;5032382;28;20040;-85
2021/07/12 06:37:11;;;;;;;13.82;12.43;;;20.30;99.90;;;;;;5049416;28;20079;-85
2021/07/12 06:39:37;;;;;;;13.18;11.82;;;20.40;99.90;;;;;;5031843;28;20071;-84
2021/07/12 06:42:03;;;;;;;13.25;11.88;;;20.60;99.90;;;;;;5033658;28;20033;-85
2021/07/12 06:44:29;;;;;;;13.38;12.02;;;20.50;99.90;;;;;;5034555;28;20500;-84
2021/07/12 06:46:55;;;;;;;13.88;12.50;;;20.70;99.90;;;;;;5032926;28;20035;-84
2021/07/12 06:49:21;;;;;;;12.63;11.38;;;20.80;99.90;;;;;;5020606;23;20078;-83
2021/07/12 06:51:49;;;;;;;11.40;10.20;;;20.90;99.90;;;;;;5010224;28;20049;-83
2021/07/12 06:54:15;;;;;;;11.27;10.07;;;21.00;99.90;;;;;;5010212;28;20041;-82
2021/07/12 06:56:41;;;;;;;13.23;10.27;;;21.20;99.90;;;;;;5010142;28;20133;-83
2021/07/12 06:59:07;;;;;;;10.82;9.77;;;21.40;99.90;;;;;;4993966;28;20410;-84
2021/07/12 07:01:33;;;;;;;10.77;9.50;;;21.60;99.90;;;;;;5010588;28;20112;-85
2021/07/12 07:03:59;;;;;;;10.93;9.40;;;21.60;99.90;;;;;;4993810;28;20300;-84
2021/07/12 07:06:24;;;;;;;10.73;9.68;;;21.80;99.90;;;;;;4993774;28;20037;-84
2021/07/12 07:08:50;;;;;;;10.65;9.65;;;21.90;99.90;;;;;;4993795;28;20355;-84
2021/07/12 07:11:16;;;;;;;9.20;8.30;;;22.10;99.90;;;;;;4993661;28;20030;-85
2021/07/12 07:13:45;;;;;;;10.02;9.15;;;22.50;99.90;;;;;;4994336;28;20053;-84
2021/07/12 07:16:12;;;;;;;9.55;8.63;;;22.40;99.90;;;;;;4990225;28;20026;-85
2021/07/12 07:18:41;;;;;;;8.60;7.80;;;22.20;99.90;;;;;;4990372;28;20049;-85
2021/07/12 07:21:09;;;;;;;8.25;7.45;;;22.00;99.90;;;;;;5006227;28;20049;-85
2021/07/12 07:23:35;;;;;;;9.82;8.93;;;22.00;99.90;;;;;;4990077;28;20038;-85
2021/07/12 07:26:01;;;;;;;9.32;8.52;;;21.90;99.90;;;;;;4990030;28;20034;-84
2021/07/12 07:28:28;;;;;;;8.23;7.38;;;21.70;99.90;;;;;;4989990;28;20034;-84
2021/07/12 07:30:53;;;;;;;9.23;8.43;;;22.00;99.90;;;;;;4989924;28;20062;-85
2021/07/12 07:33:20;;;;;;;8.45;7.50;;;22.50;99.90;;;;;;4989957;28;20030;-85
2021/07/12 07:35:46;;;;;;;8.57;7.80;;;22.90;99.90;;;;;;4989454;28;20034;-85
2021/07/12 07:38:11;;;;;;;9.20;8.32;;;23.10;99.90;;;;;;4989262;28;20203;-85
2021/07/12 07:40:37;;;;;;;8.25;6.45;;;23.20;99.90;;;;;;4988832;28;20038;-86
2021/07/12 07:43:03;;;;;;;8.07;7.35;;;23.40;99.90;;;;;;4989041;28;20030;-85
2021/07/12 07:45:32;;;;;;;7.95;7.25;;;23.60;99.90;;;;;;4988859;28;20153;-86
2021/07/12 07:47:57;;;;;;;8.48;7.70;;;23.70;99.90;;;;;;4991878;28;20049;-86
2021/07/12 07:50:23;;;;;;;8.00;6.20;;;23.50;99.90;;;;;;4992508;28;20034;-85
2021/07/12 07:52:51;;;;;;;7.00;6.28;;;23.70;99.90;;;;;;5024538;28;20026;-86
2021/07/12 07:55:17;;;;;;;8.18;7.40;;;24.00;99.90;;;;;;5008376;28;20037;-86
2021/07/12 07:57:43;;;;;;;7.55;6.80;;;23.90;99.90;;;;;;5008021;28;20026;-86
2021/07/12 08:00:15;;;;;;;7.63;6.70;;;24.10;99.90;;;;;;5008146;28;20587;-86
2021/07/12 08:02:41;;;;;;;6.47;5.72;;;24.10;99.90;;;;;;5008244;28;20097;-86
2021/07/12 08:05:07;;;;;;;5.63;5.13;;;24.10;99.90;;;;;;5008316;28;20064;-87
2021/07/12 08:07:37;;;;;;;6.20;5.18;;;24.20;99.90;;;;;;5024462;28;20032;-86
2021/07/12 08:10:08;;;;;;;5.80;5.20;;;24.40;99.90;;;;;;5024210;28;20236;-87
2021/07/12 08:12:33;;;;;;;4.75;4.22;;;24.30;99.90;;;;;;5008166;28;20034;-86
2021/07/12 08:14:59;;;;;;;6.63;4.03;;;24.70;99.90;;;;;;5024538;28;20596;-86
2021/07/12 08:17:24;;;;;;;6.07;5.22;;;24.90;99.90;;;;;;4991630;28;20040;-86
2021/07/12 08:19:50;;;;;;;6.85;4.50;;;25.00;99.90;;;;;;4991740;28;20041;-86
2021/07/12 08:22:17;;;;;;;4.75;4.28;;;24.90;99.90;;;;;;4991535;28;20034;-86
2021/07/12 08:24:43;;;;;;;4.38;3.97;;;25.00;99.90;;;;;;4991919;28;20034;-86
2021/07/12 08:27:08;;;;;;;5.65;4.20;;;25.00;99.90;;;;;;4991539;28;20042;-86
2021/07/12 08:29:34;;;;;;;4.65;3.55;;;25.10;99.90;;;;;;4991949;28;20176;-86
2021/07/12 08:31:59;;;;;;;3.72;3.33;;;25.00;99.90;;;;;;4991500;28;20101;-86
2021/07/12 08:34:25;;;;;;;3.42;3.13;;;25.60;99.90;;;;;;5008649;28;20037;-86
2021/07/12 08:36:51;;;;;;;4.13;2.85;;;25.60;99.90;;;;;;5008238;28;20044;-87
2021/07/12 08:39:18;;;;;;;3.30;3.00;;;25.60;99.90;;;;;;4991569;28;20042;-87
2021/07/12 08:41:45;;;;;;;3.38;2.72;;;25.30;99.90;;;;;;5025668;28;20030;-86
2021/07/12 08:44:10;;;;;;;4.05;3.35;;;25.50;99.90;;;;;;4991458;28;20040;-87
2021/07/12 08:46:56;;;;;;;4.25;3.85;;;25.30;99.90;;;;;;4987797;28;20054;-86
2021/07/12 08:49:22;;;;;;;3.45;2.92;;;25.50;99.90;;;;;;5056777;23;20148;-86
2021/07/12 08:51:49;;;;;;;3.08;2.72;;;25.70;99.90;;;;;;5051149;28;20052;-86
2021/07/12 08:54:15;;;;;;;2.92;2.58;;;25.60;99.90;;;;;;5050603;28;20163;-86
2021/07/12 08:56:41;;;;;;;4.50;2.47;;;25.80;99.90;;;;;;5085131;28;20020;-87
2021/07/12 08:59:33;;;;;;;3.30;2.55;;;25.80;99.90;;;;;;5050391;28;20037;-87
2021/07/12 09:02:15;;;;;;;4.07;3.70;;;25.90;99.90;;;;;;5050358;28;20067;-87
2021/07/12 09:04:46;;;;;;;3.38;2.75;;;25.80;99.90;;;;;;5067174;28;20029;-87
2021/07/12 09:07:14;;;;;;;3.85;2.40;;;25.90;99.90;;;;;;5085056;28;20025;-87
2021/07/12 09:09:40;;;;;;;4.40;2.88;;;26.50;99.90;;;;;;5050408;28;20051;-86
2021/07/12 09:12:14;;;;;;;3.72;3.10;;;26.50;99.90;;;;;;5067171;28;20060;-86
2021/07/12 09:14:42;;;;;;;3.83;3.03;;;26.20;99.90;;;;;;5050303;28;20033;-86
2021/07/12 09:17:09;;;;;;;3.60;3.30;;;26.20;99.90;;;;;;5050138;28;20039;-87
2021/07/12 09:19:38;;;;;;;4.28;3.88;;;26.90;99.90;;;;;;5050274;28;20037;-86
2021/07/12 09:22:08;;;;;;;3.40;2.55;;;26.40;99.90;;;;;;5051435;28;20032;-86
2021/07/12 09:24:51;;;;;;;4.38;3.97;;;26.90;99.90;;;;;;5054159;28;20037;-87
2021/07/12 09:27:20;;;;;;;2.80;2.05;;;26.80;99.90;;;;;;5054301;28;20055;-86
2021/07/12 09:29:48;;;;;;;3.70;3.20;;;27.50;99.90;;;;;;5070667;28;20028;-87
2021/07/12 09:32:16;;;;;;;6.68;3.67;;;27.40;99.90;;;;;;5070874;28;20124;-87
2021/07/12 09:34:43;;;;;;;3.40;3.10;;;27.00;99.90;;;;;;5053804;28;20032;-87
2021/07/12 09:37:12;;;;;;;3.45;2.72;;;27.10;99.90;;;;;;5070620;28;20098;-87
2021/07/12 09:39:46;;;;;;;3.80;2.40;;;26.60;99.90;;;;;;5088050;28;20024;-85
2021/07/12 09:42:13;;;;;;;3.80;3.40;;;26.40;99.90;;;;;;5088545;28;20104;-88
2021/07/12 09:44:47;;;;;;;3.10;2.80;;;26.10;99.90;;;;;;5070616;28;20032;-87
2021/07/12 09:47:19;;;;;;;3.55;2.65;;;26.50;99.90;;;;;;5053549;28;20043;-87
2021/07/12 09:49:47;;;;;;;3.95;3.08;;;26.90;99.90;;;;;;5051395;28;20078;-87
2021/07/12 09:52:15;;;;;;;2.13;1.83;;;27.10;99.90;;;;;;5053463;28;20094;-87
2021/07/12 09:54:43;;;;;;;3.45;2.20;;;26.90;99.90;;;;;;5088141;28;20144;-89
2021/07/12 09:57:20;;;;;;;2.78;2.47;;;26.70;99.90;;;;;;5053711;28;20471;-88
2021/07/12 10:00:07;;;;;;;4.28;3.88;;;25.80;99.90;;;;;;5070217;28;20045;-88
2021/07/12 10:02:46;;;;;;;3.35;2.58;;;24.90;99.90;;;;;;5054290;28;20092;-87
2021/07/12 10:05:13;;;;;;;2.88;1.90;;;25.70;99.90;;;;;;5053651;28;20037;-89
2021/07/12 10:07:39;;;;;;;3.50;2.63;;;26.50;99.90;;;;;;5053411;28;20032;-88
2021/07/12 10:10:13;;;;;;;2.30;1.70;;;26.60;99.90;;;;;;5069992;28;20037;-89
2021/07/12 10:12:40;;;;;;;3.25;2.30;;;27.10;99.90;;;;;;5070010;28;20035;-88
2021/07/12 10:15:06;;;;;;;2.95;2.13;;;26.80;99.90;;;;;;5052811;28;20033;-89
2021/07/12 10:17:32;;;;;;;6.65;2.67;;;26.60;99.90;;;;;;5049912;28;20068;-88
2021/07/12 10:19:57;;;;;;;4.43;3.17;;;26.00;99.90;;;;;;5049665;28;20052;-89
2021/07/12 10:22:24;;;;;;;4.05;3.35;;;25.50;99.90;;;;;;5049631;28;20037;-89
2021/07/12 10:24:51;;;;;;;3.33;3.03;;;25.60;99.90;;;;;;5049688;28;20106;-86
2021/07/12 10:27:25;;;;;;;3.88;2.88;;;25.90;99.90;;;;;;5066321;28;20069;-88
2021/07/12 10:29:52;;;;;;;4.82;2.25;;;26.30;99.90;;;;;;5049485;28;20040;-89
2021/07/12 10:32:19;;;;;;;2.70;1.38;;;26.40;99.90;;;;;;5049186;28;20032;-87
2021/07/12 10:34:50;;;;;;;2.80;1.75;;;26.70;99.90;;;;;;5049460;28;20059;-86
2021/07/12 10:37:23;;;;;;;4.03;2.22;;;26.60;99.90;;;;;;5033210;28;20025;-87
2021/07/12 10:40:11;;;;;;;3.60;2.15;;;26.60;99.90;;;;;;5032768;28;20041;-88
2021/07/12 10:42:46;;;;;;;2.38;2.17;;;26.30;99.90;;;;;;5032760;28;20036;-87
2021/07/12 10:45:13;;;;;;;3.05;2.30;;;26.00;99.90;;;;;;5032789;28;20051;-87
2021/07/12 10:47:48;;;;;;;2.30;1.90;;;25.80;99.90;;;;;;5088104;22;20031;-86
2021/07/12 10:50:43;;;;;;;2.78;1.92;;;25.90;99.90;;;;;;5052449;28;20052;-87
2021/07/12 10:53:15;;;;;;;3.15;2.85;;;25.50;99.90;;;;;;5069564;28;20063;-88
2021/07/12 10:56:25;;;;;;;3.45;2.53;;;25.40;99.90;;;;;;5052783;28;20102;-86
2021/07/12 10:58:51;;;;;;;4.28;2.53;;;26.20;99.90;;;;;;5022570;28;20143;-87
2021/07/12 11:01:35;;;;;;;3.38;2.70;;;26.70;99.90;;;;;;5069338;28;20051;-87
2021/07/12 11:04:01;;;;;;;4.32;3.85;;;26.20;99.90;;;;;;5069292;28;20407;-87
2021/07/12 11:06:53;;;;;;;3.55;2.75;;;26.10;99.90;;;;;;5052702;28;20100;-86
2021/07/12 11:09:45;;;;;;;2.33;1.85;;;26.30;99.90;;;;;;5052579;28;20024;-86
2021/07/12 11:12:28;;;;;;;2.67;2.05;;;26.80;99.90;;;;;;5052435;28;20058;-88
2021/07/12 11:15:07;;;;;;;3.05;2.25;;;26.80;99.90;;;;;;5048869;28;20046;-87
2021/07/12 11:17:54;;;;;;;2.35;1.85;;;26.80;99.90;;;;;;5065444;28;20033;-86
2021/07/12 11:20:39;;;;;;;2.72;2.03;;;27.40;99.90;;;;;;5065217;28;20040;-86
2021/07/12 11:23:05;;;;;;;2.40;2.20;;;27.50;99.90;;;;;;5031766;28;20365;-86
2021/07/12 11:25:41;;;;;;;2.67;1.67;;;27.80;99.90;;;;;;5065057;28;20084;-86
2021/07/12 11:28:13;;;;;;;2.95;1.88;;;27.60;99.90;;;;;;5065325;28;20021;-85
2021/07/12 11:30:40;;;;;;;2.60;2.20;;;27.20;99.90;;;;;;5065119;28;20055;-86
2021/07/12 11:33:05;;;;;;;2.50;1.40;;;26.90;99.90;;;;;;5048164;28;20126;-85
2021/07/12 11:35:32;;;;;;;2.50;1.45;;;27.00;99.90;;;;;;5064645;28;20052;-86
2021/07/12 11:38:05;;;;;;;2.60;1.98;;;27.10;99.90;;;;;;5064640;28;20029;-86
2021/07/12 11:40:31;;;;;;;2.42;1.55;;;27.00;99.90;;;;;;5064724;28;20427;-85
2021/07/12 11:42:57;;;;;;;3.08;1.50;;;27.00;99.90;;;;;;5048103;28;20033;-85
2021/07/12 11:45:24;;;;;;;2.22;1.30;;;26.90;99.90;;;;;;5064061;28;20033;-87
2021/07/12 11:47:59;;;;;;;3.08;1.90;;;26.80;99.90;;;;;;5067868;28;20095;-87
2021/07/12 11:50:31;;;;;;;2.20;1.63;;;27.00;99.90;;;;;;5050839;28;20092;-88
2021/07/12 11:52:59;;;;;;;2.63;1.58;;;27.20;99.90;;;;;;5051108;28;20031;-87
2021/07/12 11:55:27;;;;;;;2.50;1.95;;;26.80;99.90;;;;;;5068030;28;20043;-88
2021/07/12 11:57:58;;;;;;;1.80;1.23;;;26.80;99.90;;;;;;5050990;28;20032;-89
2021/07/12 12:00:32;;;;;;;1.90;1.27;;;26.70;99.90;;;;;;5051124;28;20064;-87
2021/07/12 12:03:16;;;;;;;2.10;1.20;;;26.70;99.90;;;;;;5051188;28;20058;-89
2021/07/12 12:05:43;;;;;;;1.85;1.23;;;26.80;99.90;;;;;;5051217;28;20035;-87
2021/07/12 12:08:15;;;;;;;1.70;1.13;;;26.60;99.90;;;;;;5051312;28;20040;-88
2021/07/12 12:10:41;;;;;;;1.48;0.80;;;26.30;99.90;;;;;;5067773;28;20472;-89
2021/07/12 12:13:10;;;;;;;2.03;1.05;;;26.60;99.90;;;;;;5050921;28;20035;-87
2021/07/12 12:15:38;;;;;;;2.35;0.98;;;26.40;99.90;;;;;;5067484;28;20377;-87
2021/07/12 12:18:10;;;;;;;2.28;1.23;;;26.20;99.90;;;;;;5067565;28;20052;-87
2021/07/12 12:20:40;;;;;;;1.80;1.27;;;26.20;99.90;;;;;;5050736;28;20041;-88
2021/07/12 12:23:10;;;;;;;1.83;1.25;;;26.40;99.90;;;;;;5050799;28;20024;-88
2021/07/12 12:25:44;;;;;;;2.03;1.00;;;26.50;99.90;;;;;;5051699;28;20032;-88
2021/07/12 12:28:21;;;;;;;1.70;0.80;;;26.40;99.90;;;;;;5050814;28;20059;-87
2021/07/12 12:30:46;;;;;;;2.92;1.52;;;26.30;99.90;;;;;;5050893;28;20028;-88
2021/07/12 12:33:13;;;;;;;2.35;1.17;;;26.10;99.90;;;;;;5050571;28;20078;-87
2021/07/12 12:35:39;;;;;;;1.80;1.10;;;26.10;99.90;;;;;;5050621;28;20036;-88
2021/07/12 12:38:15;;;;;;;1.42;1.00;;;26.20;99.90;;;;;;5067029;28;20032;-88
2021/07/12 12:40:43;;;;;;;1.42;0.75;;;26.60;99.90;;;;;;5067122;28;20040;-87
2021/07/12 12:43:11;;;;;;;1.50;0.90;;;26.60;99.90;;;;;;5067423;28;20028;-87
2021/07/12 12:45:49;;;;;;;2.07;0.90;;;26.60;99.90;;;;;;5050411;28;20100;-87
2021/07/12 12:48:34;;;;;;;1.50;0.90;;;26.70;99.90;;;;;;5050475;28;20331;-87
2021/07/12 12:51:17;;;;;;;1.50;0.95;;;26.80;99.90;;;;;;5050704;28;20040;-87